createdAt,value
2022-09-07T00:01:12.448Z,14.38
2022-09-07T00:03:40.560Z,14.39
2022-09-07T00:06:10.999Z,14.42
2022-09-07T00:08:40.918Z,14.45
2022-09-07T00:11:14.224Z,14.49
2022-09-07T00:13:44.160Z,14.53
2022-09-07T00:16:18.586Z,14.57
2022-09-07T00:18:46.983Z,14.62
2022-09-07T00:21:17.775Z,14.65
2022-09-07T00:23:47.928Z,14.66
2022-09-07T00:26:22.320Z,14.68
2022-09-07T00:28:53.150Z,14.67
2022-09-07T00:31:24.379Z,14.65
2022-09-07T00:33:53.821Z,14.66
2022-09-07T00:36:22.770Z,14.66
2022-09-07T00:38:51.769Z,14.69
2022-09-07T00:41:22.343Z,14.70
2022-09-07T00:43:56.341Z,14.71
2022-09-07T00:46:32.073Z,14.77
2022-09-07T00:49:17.393Z,14.78
2022-09-07T00:52:12.899Z,14.77
2022-09-07T00:54:45.770Z,14.80
2022-09-07T00:57:14.523Z,14.76
2022-09-07T00:59:47.979Z,14.82
2022-09-07T01:02:17.711Z,14.79
2022-09-07T01:04:53.553Z,14.75
2022-09-07T01:07:22.021Z,14.79
2022-09-07T01:09:50.968Z,14.79
2022-09-07T01:12:18.972Z,14.75
2022-09-07T01:14:50.721Z,14.75
2022-09-07T01:17:36.568Z,14.72
2022-09-07T01:20:19.178Z,14.56
2022-09-07T01:22:53.660Z,14.55
2022-09-07T01:25:27.659Z,14.58
2022-09-07T01:28:19.212Z,14.61
2022-09-07T01:31:07.405Z,14.51
2022-09-07T01:34:11.491Z,14.50
2022-09-07T01:36:50.670Z,14.51
2022-09-07T01:39:22.182Z,14.56
2022-09-07T01:42:01.557Z,14.59
2022-09-07T01:44:41.648Z,14.64
2022-09-07T01:47:17.668Z,14.64
2022-09-07T01:49:57.046Z,14.65
2022-09-07T01:52:37.319Z,14.66
2022-09-07T01:55:19.388Z,14.62
2022-09-07T01:58:23.120Z,14.62
2022-09-07T02:01:00.246Z,14.67
2022-09-07T02:03:34.579Z,14.67
2022-09-07T02:06:12.445Z,14.69
2022-09-07T02:09:00.575Z,14.69
2022-09-07T02:11:44.700Z,14.69
2022-09-07T02:14:24.582Z,14.64
2022-09-07T02:17:00.978Z,14.63
2022-09-07T02:19:39.398Z,14.64
2022-09-07T02:22:13.839Z,14.61
2022-09-07T02:24:47.402Z,14.60
2022-09-07T02:27:19.544Z,14.64
2022-09-07T02:29:47.757Z,14.64
2022-09-07T02:32:15.780Z,14.56
2022-09-07T02:34:44.163Z,14.44
2022-09-07T02:37:15.502Z,14.46
2022-09-07T02:39:43.956Z,14.49
2022-09-07T02:42:12.147Z,14.50
2022-09-07T02:44:42.646Z,14.53
2022-09-07T02:47:29.979Z,14.57
2022-09-07T02:50:10.137Z,14.57
2022-09-07T02:52:56.501Z,14.59
2022-09-07T02:55:45.933Z,14.64
2022-09-07T02:58:29.800Z,14.67
2022-09-07T03:01:09.982Z,14.68
2022-09-07T03:03:44.062Z,14.73
2022-09-07T03:06:23.868Z,14.74
2022-09-07T03:08:55.990Z,14.75
2022-09-07T03:11:24.967Z,14.74
2022-09-07T03:13:53.111Z,14.72
2022-09-07T03:16:21.217Z,14.71
2022-09-07T03:18:49.996Z,14.72
2022-09-07T03:21:18.429Z,14.69
2022-09-07T03:23:51.174Z,14.70
2022-09-07T03:26:27.211Z,14.67
2022-09-07T03:28:55.276Z,14.70
2022-09-07T03:31:23.566Z,14.69
2022-09-07T03:33:51.811Z,14.68
2022-09-07T03:36:19.872Z,14.71
2022-09-07T03:38:48.055Z,14.70
2022-09-07T03:41:16.647Z,14.74
2022-09-07T03:43:44.931Z,14.77
2022-09-07T03:46:15.243Z,14.77
2022-09-07T03:48:43.827Z,14.79
2022-09-07T03:51:14.361Z,14.83
2022-09-07T03:53:45.377Z,14.77
2022-09-07T03:56:20.817Z,14.78
2022-09-07T03:58:50.562Z,14.75
2022-09-07T04:01:24.817Z,14.74
2022-09-07T04:03:53.477Z,14.77
2022-09-07T04:06:21.691Z,14.79
2022-09-07T04:08:50.009Z,14.76
2022-09-07T04:11:19.200Z,14.72
2022-09-07T04:13:47.340Z,14.74
2022-09-07T04:16:18.149Z,14.71
2022-09-07T04:18:47.366Z,14.69
2022-09-07T04:21:16.827Z,14.72
2022-09-07T04:23:45.717Z,14.72
2022-09-07T04:26:22.394Z,14.71
2022-09-07T04:28:54.630Z,14.63
2022-09-07T04:31:24.580Z,14.49
2022-09-07T04:33:54.555Z,14.39
2022-09-07T04:36:24.949Z,14.39
2022-09-07T04:38:59.638Z,14.38
2022-09-07T04:41:29.468Z,14.39
2022-09-07T04:44:00.154Z,14.48
2022-09-07T04:46:30.649Z,14.50
2022-09-07T04:49:01.942Z,14.50
2022-09-07T04:51:32.683Z,14.59
2022-09-07T04:54:03.981Z,14.67
2022-09-07T04:56:33.508Z,14.71
2022-09-07T04:59:05.252Z,14.71
2022-09-07T05:01:34.421Z,14.76
2022-09-07T05:04:05.245Z,14.75
2022-09-07T05:06:34.989Z,14.81
2022-09-07T05:09:03.682Z,14.84
2022-09-07T05:11:32.012Z,14.83
2022-09-07T05:14:01.947Z,14.84
2022-09-07T05:16:32.164Z,14.81
2022-09-07T05:19:03.233Z,14.84
2022-09-07T05:21:34.098Z,14.83
2022-09-07T05:24:02.829Z,14.80
2022-09-07T05:26:33.913Z,14.75
2022-09-07T05:31:55.071Z,14.77
2022-09-07T05:34:32.323Z,14.75
2022-09-07T05:37:02.177Z,14.71
2022-09-07T05:39:31.419Z,14.62
2022-09-07T05:42:01.199Z,14.62
2022-09-07T05:44:46.291Z,14.64
2022-09-07T05:47:15.102Z,14.59
2022-09-07T05:49:43.408Z,14.57
2022-09-07T05:52:11.738Z,14.52
2022-09-07T05:54:40.521Z,14.48
2022-09-07T05:57:13.013Z,14.48
2022-09-07T05:59:42.104Z,14.45
2022-09-07T06:02:15.240Z,14.42
2022-09-07T06:04:45.906Z,14.36
2022-09-07T06:07:22.995Z,14.33
2022-09-07T06:12:39.692Z,14.28
2022-09-07T06:15:08.401Z,14.22
2022-09-07T06:17:36.659Z,14.17
2022-09-07T06:20:07.049Z,14.24
2022-09-07T06:22:36.795Z,14.22
2022-09-07T06:25:05.879Z,14.19
2022-09-07T06:27:34.444Z,14.20
2022-09-07T06:30:03.148Z,14.22
2022-09-07T06:32:46.842Z,14.23
2022-09-07T06:35:15.976Z,14.23
2022-09-07T06:37:44.742Z,14.27
2022-09-07T06:40:13.380Z,14.31
2022-09-07T06:42:41.660Z,14.32
2022-09-07T06:45:12.101Z,14.29
2022-09-07T06:47:41.027Z,14.30
2022-09-07T06:50:10.040Z,14.32
2022-09-07T06:55:28.013Z,14.33
2022-09-07T06:57:56.411Z,14.33
2022-09-07T07:00:24.892Z,14.31
2022-09-07T07:02:53.635Z,14.39
2022-09-07T07:05:22.130Z,14.38
2022-09-07T07:07:50.239Z,14.38
2022-09-07T07:10:23.676Z,14.33
2022-09-07T07:12:57.649Z,14.23
2022-09-07T07:15:28.544Z,14.34
2022-09-07T07:18:05.997Z,14.38
2022-09-07T07:20:46.414Z,14.46
2022-09-07T07:23:15.175Z,14.55
2022-09-07T07:25:43.862Z,14.60
2022-09-07T07:31:05.974Z,14.68
2022-09-07T07:33:38.144Z,14.69
2022-09-07T07:36:27.059Z,14.86
2022-09-07T07:44:20.799Z,14.99
2022-09-07T07:46:50.510Z,15.13
2022-09-07T07:49:19.246Z,15.23
2022-09-07T07:54:37.091Z,15.44
2022-09-07T07:57:06.084Z,15.62
2022-09-07T07:59:35.257Z,15.73
2022-09-07T08:02:05.548Z,15.82
2022-09-07T08:04:34.944Z,15.96
2022-09-07T08:07:09.473Z,16.02
2022-09-07T08:09:47.680Z,16.11
2022-09-07T08:12:21.454Z,16.23
2022-09-07T08:14:49.877Z,16.39
2022-09-07T08:17:18.530Z,16.43
2022-09-07T08:19:47.633Z,16.52
2022-09-07T08:22:18.367Z,16.55
2022-09-07T08:24:46.522Z,16.70
2022-09-07T08:27:18.038Z,16.55
2022-09-07T08:29:46.878Z,16.59
2022-09-07T08:32:18.632Z,16.64
2022-09-07T08:34:47.383Z,16.55
2022-09-07T08:37:15.910Z,16.44
2022-09-07T08:39:44.332Z,16.55
2022-09-07T08:42:45.455Z,16.67
2022-09-07T08:45:52.321Z,16.55
2022-09-07T08:48:32.728Z,16.77
2022-09-07T08:51:35.194Z,16.84
2022-09-07T08:54:05.748Z,16.91
2022-09-07T08:57:20.453Z,16.92
2022-09-07T08:59:46.833Z,16.96
2022-09-07T09:02:38.504Z,16.91
2022-09-07T09:05:34.621Z,16.89
2022-09-07T09:08:27.894Z,16.89
2022-09-07T09:11:17.046Z,16.97
2022-09-07T09:14:10.087Z,16.99
2022-09-07T09:16:46.047Z,16.92
2022-09-07T09:19:55.612Z,16.99
2022-09-07T09:22:28.683Z,17.15
2022-09-07T09:25:16.117Z,17.22
2022-09-07T09:27:46.918Z,17.15
2022-09-07T09:30:23.704Z,17.13
2022-09-07T09:33:11.936Z,17.14
2022-09-07T09:35:41.509Z,17.21
2022-09-07T09:38:46.317Z,17.15
2022-09-07T09:41:15.967Z,17.23
2022-09-07T09:43:54.430Z,17.27
2022-09-07T09:46:28.419Z,17.26
2022-09-07T09:49:00.500Z,17.33
2022-09-07T09:54:45.785Z,17.22
2022-09-07T09:57:18.053Z,17.09
2022-09-07T10:00:10.941Z,17.13
2022-09-07T10:05:37.387Z,17.17
2022-09-07T10:08:28.852Z,17.15
2022-09-07T10:11:05.189Z,17.05
2022-09-07T10:13:35.655Z,17.09
2022-09-07T10:16:09.742Z,17.11
2022-09-07T10:18:41.199Z,17.15
2022-09-07T10:21:18.433Z,17.23
2022-09-07T10:23:49.490Z,17.32
2022-09-07T10:26:28.201Z,17.34
2022-09-07T10:29:14.980Z,17.42
2022-09-07T10:31:57.131Z,17.58
2022-09-07T10:34:52.049Z,17.65
2022-09-07T10:37:42.422Z,17.61
2022-09-07T10:40:38.074Z,17.92
2022-09-07T10:43:23.283Z,18.16
2022-09-07T10:49:34.498Z,18.67
2022-09-07T10:52:35.855Z,19.00
2022-09-07T10:55:07.623Z,18.96
2022-09-07T10:58:00.071Z,19.06
2022-09-07T11:00:38.397Z,19.19
2022-09-07T11:03:27.893Z,19.49
2022-09-07T11:06:55.185Z,20.04
2022-09-07T11:09:29.410Z,20.54
2022-09-07T11:12:08.709Z,20.20
2022-09-07T11:15:35.988Z,20.62
2022-09-07T11:18:21.177Z,20.79
2022-09-07T11:21:01.064Z,21.55
2022-09-07T11:23:41.729Z,21.65
2022-09-07T11:26:36.327Z,21.74
2022-09-07T11:29:31.017Z,21.97
2022-09-07T11:32:12.259Z,22.35
2022-09-07T11:34:53.998Z,22.00
2022-09-07T11:37:37.784Z,22.35
2022-09-07T11:40:21.681Z,22.34
2022-09-07T11:43:16.532Z,22.69
2022-09-07T11:45:48.331Z,22.60
2022-09-07T11:48:30.848Z,23.13
2022-09-07T11:51:03.765Z,23.76
2022-09-07T11:53:39.410Z,24.06
2022-09-07T11:56:14.336Z,24.21
2022-09-07T11:59:01.660Z,24.63
2022-09-07T12:02:03.997Z,24.59
2022-09-07T12:04:56.366Z,24.68
2022-09-07T12:07:48.869Z,24.75
2022-09-07T12:10:33.271Z,25.03
2022-09-07T12:13:20.678Z,24.78
2022-09-07T12:15:52.254Z,25.00
2022-09-07T12:18:35.720Z,25.45
2022-09-07T12:21:04.186Z,25.71
2022-09-07T12:27:05.434Z,26.17
2022-09-07T12:29:45.111Z,26.20
2022-09-07T12:32:54.627Z,26.23
2022-09-07T12:35:43.195Z,26.11
2022-09-07T12:38:18.574Z,26.47
2022-09-07T12:40:55.693Z,26.56
2022-09-07T12:43:27.692Z,26.64
2022-09-07T12:46:36.545Z,26.99
2022-09-07T12:49:31.702Z,27.01
2022-09-07T12:52:41.800Z,27.85
2022-09-07T12:58:42.834Z,27.61
2022-09-07T13:02:00.654Z,27.31
2022-09-07T13:05:06.321Z,27.58
2022-09-07T13:08:14.110Z,27.27
2022-09-07T13:10:56.138Z,26.93
2022-09-07T13:16:29.543Z,27.43
2022-09-07T13:19:01.907Z,27.40
2022-09-07T13:21:38.230Z,27.36
2022-09-07T13:27:27.018Z,27.87
2022-09-07T13:30:20.324Z,28.10
2022-09-07T13:35:45.936Z,27.14
2022-09-07T13:38:16.817Z,26.68
2022-09-07T13:40:50.495Z,25.91
2022-09-07T13:43:22.230Z,25.12
2022-09-07T13:45:55.419Z,24.88
2022-09-07T13:48:46.871Z,24.26
2022-09-07T13:51:34.166Z,24.05
2022-09-07T13:54:22.644Z,23.78
2022-09-07T13:57:39.834Z,23.48
2022-09-07T14:00:15.268Z,23.33
2022-09-07T14:02:43.974Z,23.22
2022-09-07T14:05:18.817Z,23.13
2022-09-07T14:07:47.780Z,23.44
2022-09-07T14:10:20.832Z,24.16
2022-09-07T14:12:53.289Z,24.84
2022-09-07T14:15:44.067Z,25.33
2022-09-07T14:18:18.557Z,25.19
2022-09-07T14:21:17.337Z,25.08
2022-09-07T14:23:51.388Z,25.39
2022-09-07T14:26:22.854Z,25.14
2022-09-07T14:28:57.844Z,24.92
2022-09-07T14:31:27.372Z,24.63
2022-09-07T14:33:58.634Z,24.40
2022-09-07T14:36:45.501Z,24.21
2022-09-07T14:39:22.009Z,24.26
2022-09-07T14:41:51.200Z,24.09
2022-09-07T14:44:40.565Z,23.83
2022-09-07T14:47:29.199Z,23.65
2022-09-07T14:50:06.005Z,23.25
2022-09-07T14:52:43.695Z,23.24
2022-09-07T14:55:33.755Z,23.05
2022-09-07T14:58:22.483Z,22.95
2022-09-07T15:04:00.311Z,22.77
2022-09-07T15:09:45.325Z,22.55
2022-09-07T15:12:36.517Z,22.55
2022-09-07T15:15:18.645Z,22.51
2022-09-07T15:17:49.311Z,22.37
2022-09-07T15:20:32.923Z,22.46
2022-09-07T15:23:04.605Z,23.69
2022-09-07T15:25:34.668Z,24.85
2022-09-07T15:28:04.770Z,25.26
2022-09-07T15:30:34.141Z,25.95
2022-09-07T15:33:02.410Z,26.32
2022-09-07T15:35:31.329Z,25.83
2022-09-07T15:38:04.985Z,25.48
2022-09-07T15:41:03.775Z,25.58
2022-09-07T15:43:31.797Z,25.39
2022-09-07T15:46:00.411Z,25.59
2022-09-07T15:48:28.655Z,25.92
2022-09-07T15:52:04.813Z,25.98
2022-09-07T15:57:48.054Z,25.52
2022-09-07T15:59:38.051Z,25.59
2022-09-07T16:03:04.673Z,25.41
2022-09-07T16:04:57.049Z,25.29
2022-09-07T16:08:24.891Z,25.10
2022-09-07T16:10:15.270Z,25.01
2022-09-07T16:15:34.469Z,24.79
2022-09-07T16:18:03.386Z,24.72
2022-09-07T16:20:32.221Z,24.49
2022-09-07T16:23:17.223Z,24.50
2022-09-07T16:25:59.656Z,24.15
2022-09-07T16:28:28.482Z,23.56
2022-09-07T16:30:58.230Z,22.94
2022-09-07T16:33:33.034Z,22.73
2022-09-07T16:36:09.681Z,22.54
2022-09-07T16:38:44.709Z,22.04
2022-09-07T16:41:24.199Z,21.72
2022-09-07T16:43:54.732Z,21.54
2022-09-07T16:46:26.231Z,21.20
2022-09-07T16:48:55.459Z,21.00
2022-09-07T16:51:25.012Z,20.47
2022-09-07T16:53:56.802Z,20.20
2022-09-07T16:56:28.066Z,20.08
2022-09-07T16:59:01.213Z,20.03
2022-09-07T17:01:32.922Z,19.91
2022-09-07T17:04:04.509Z,19.68
2022-09-07T17:06:36.696Z,19.50
2022-09-07T17:09:05.613Z,19.49
2022-09-07T17:11:37.523Z,19.36
2022-09-07T17:14:09.019Z,19.33
2022-09-07T17:16:41.515Z,19.26
2022-09-07T17:22:03.744Z,19.08
2022-09-07T17:24:32.542Z,19.03
2022-09-07T17:27:02.050Z,18.93
2022-09-07T17:29:33.838Z,18.85
2022-09-07T17:34:51.708Z,18.78
2022-09-07T17:37:20.426Z,18.70
2022-09-07T17:39:48.510Z,18.65
2022-09-07T17:42:19.481Z,18.62
2022-09-07T17:44:52.794Z,18.60
2022-09-07T17:47:21.615Z,18.57
2022-09-07T17:49:49.885Z,18.47
2022-09-07T17:52:18.208Z,18.47
2022-09-07T17:54:46.283Z,18.43
2022-09-07T17:57:14.353Z,18.43
2022-09-07T18:02:38.663Z,18.46
2022-09-07T18:05:07.497Z,18.42
2022-09-07T18:07:35.855Z,18.36
2022-09-07T18:10:05.060Z,18.23
2022-09-07T18:12:33.342Z,18.23
2022-09-07T18:15:01.495Z,18.12
2022-09-07T18:17:29.669Z,18.14
2022-09-07T18:19:58.056Z,18.09
2022-09-07T18:22:26.482Z,18.10
2022-09-07T18:24:54.612Z,18.06
2022-09-07T18:27:22.879Z,18.03
2022-09-07T18:29:50.891Z,18.01
2022-09-07T18:32:19.168Z,17.92
2022-09-07T18:34:50.495Z,17.86
2022-09-07T18:37:19.384Z,17.84
2022-09-07T18:39:49.453Z,17.82
2022-09-07T18:42:17.812Z,17.77
2022-09-07T18:47:39.772Z,17.65
2022-09-07T18:50:09.347Z,17.62
2022-09-07T18:52:53.522Z,17.57
2022-09-07T18:55:22.212Z,17.56
2022-09-07T18:57:50.289Z,17.56
2022-09-07T19:00:20.035Z,17.54
2022-09-07T19:02:51.721Z,17.52
2022-09-07T19:08:08.788Z,17.43
2022-09-07T19:10:37.362Z,17.40
2022-09-07T19:13:08.719Z,17.35
2022-09-07T19:15:38.039Z,17.30
2022-09-07T19:18:08.014Z,17.23
2022-09-07T19:20:36.632Z,17.18
2022-09-07T19:23:06.478Z,17.17
2022-09-07T19:25:39.851Z,17.11
2022-09-07T19:28:08.345Z,17.03
2022-09-07T19:30:36.561Z,16.97
2022-09-07T19:33:07.258Z,16.95
2022-09-07T19:35:36.360Z,16.91
2022-09-07T19:38:04.821Z,16.88
2022-09-07T19:40:33.064Z,16.83
2022-09-07T19:43:01.375Z,16.79
2022-09-07T19:45:29.541Z,16.77
2022-09-07T19:47:58.036Z,16.74
2022-09-07T19:50:26.584Z,16.74
2022-09-07T19:52:54.668Z,16.73
2022-09-07T19:55:22.886Z,16.72
2022-09-07T19:57:52.621Z,16.69
2022-09-07T20:00:23.195Z,16.63
2022-09-07T20:02:52.468Z,16.58
2022-09-07T20:05:20.509Z,16.57
2022-09-07T20:07:48.572Z,16.53
2022-09-07T20:10:17.705Z,16.51
2022-09-07T20:12:45.895Z,16.48
2022-09-07T20:15:15.247Z,16.48
2022-09-07T20:17:46.111Z,16.48
2022-09-07T20:20:16.864Z,16.49
2022-09-07T20:22:45.074Z,16.46
2022-09-07T20:25:13.770Z,16.40
2022-09-07T20:27:41.906Z,16.39
2022-09-07T20:30:11.793Z,16.37
2022-09-07T20:32:40.083Z,16.34
2022-09-07T20:35:08.779Z,16.31
2022-09-07T20:37:37.576Z,16.26
2022-09-07T20:40:06.491Z,16.25
2022-09-07T20:42:34.818Z,16.21
2022-09-07T20:45:03.544Z,16.17
2022-09-07T20:47:31.627Z,16.14
2022-09-07T20:49:59.998Z,16.09
2022-09-07T20:52:27.919Z,16.06
2022-09-07T20:54:55.832Z,16.03
2022-09-07T20:57:24.097Z,15.98
2022-09-07T20:59:52.924Z,15.95
2022-09-07T21:02:21.167Z,15.93
2022-09-07T21:04:49.207Z,15.91
2022-09-07T21:07:17.789Z,15.88
2022-09-07T21:09:46.014Z,15.85
2022-09-07T21:12:14.039Z,15.82
2022-09-07T21:14:42.721Z,15.79
2022-09-07T21:17:10.967Z,15.76
2022-09-07T21:19:39.054Z,15.72
2022-09-07T21:22:07.245Z,15.73
2022-09-07T21:24:35.325Z,15.71
2022-09-07T21:27:03.504Z,15.67
2022-09-07T21:29:31.585Z,15.64
2022-09-07T21:32:00.153Z,15.60
2022-09-07T21:34:28.149Z,15.56
2022-09-07T21:36:58.192Z,15.57
2022-09-07T21:39:26.232Z,15.54
2022-09-07T21:41:54.191Z,15.49
2022-09-07T21:44:22.367Z,15.49
2022-09-07T21:46:51.308Z,15.43
2022-09-07T21:49:21.037Z,15.37
2022-09-07T21:51:49.050Z,15.33
2022-09-07T21:54:17.040Z,15.28
2022-09-07T21:56:46.787Z,15.19
2022-09-07T21:59:17.454Z,15.16
2022-09-07T22:01:45.424Z,15.12
2022-09-07T22:04:13.731Z,15.07
2022-09-07T22:06:41.812Z,15.07
2022-09-07T22:09:11.053Z,15.02
2022-09-07T22:11:41.146Z,14.99
2022-09-07T22:14:14.628Z,14.99
2022-09-07T22:16:42.790Z,14.95
2022-09-07T22:19:12.302Z,14.91
2022-09-07T22:21:40.329Z,14.89
2022-09-07T22:24:08.510Z,14.87
2022-09-07T22:26:38.357Z,14.85
2022-09-07T22:29:10.871Z,14.84
2022-09-07T22:31:40.162Z,14.80
2022-09-07T22:34:09.550Z,14.79
2022-09-07T22:36:43.563Z,14.78
2022-09-07T22:39:14.979Z,14.77
2022-09-07T22:41:44.011Z,14.79
2022-09-07T22:44:15.040Z,14.79
2022-09-07T22:46:46.290Z,14.79
2022-09-07T22:49:18.767Z,14.79
2022-09-07T22:51:46.987Z,14.78
2022-09-07T22:54:15.236Z,14.79
2022-09-07T22:56:43.330Z,14.78
2022-09-07T22:59:12.540Z,14.78
2022-09-07T23:01:42.062Z,14.83
2022-09-07T23:04:10.877Z,14.82
2022-09-07T23:06:41.732Z,14.82
2022-09-07T23:09:13.250Z,14.83
2022-09-07T23:11:42.382Z,14.77
2022-09-07T23:14:19.541Z,14.76
2022-09-07T23:16:48.104Z,14.77
2022-09-07T23:19:18.527Z,14.75
2022-09-07T23:21:47.581Z,14.73
2022-09-07T23:24:18.187Z,14.76
2022-09-07T23:26:47.075Z,14.73
2022-09-07T23:29:15.779Z,14.69
2022-09-07T23:31:47.044Z,14.60
2022-09-07T23:34:15.201Z,14.53
2022-09-07T23:36:43.398Z,14.52
2022-09-07T23:39:12.472Z,14.48
2022-09-07T23:41:40.459Z,14.44
2022-09-07T23:44:08.574Z,14.45
2022-09-07T23:46:36.706Z,14.42
2022-09-07T23:49:05.540Z,14.38
2022-09-07T23:51:33.621Z,14.34
2022-09-07T23:54:01.620Z,14.36
2022-09-07T23:56:31.194Z,14.36
2022-09-07T23:58:59.273Z,14.32
